Time;durP1;ratioP1;P1;durP2;ratioP2;P2;SDS_P1;SDS_P2;PMS_P1;PMS_P2;Temp;Humidity;BMP_temperature;BMP_pressure;BME280_temperature;BME280_humidity;BME280_pressure;Samples;Min_cycle;Max_cycle;Signal;HPM_P1;HPM_P2
2020/12/29 00:01:46;;;;;;;3.90;2.22;;;;;;;6.58;64.60;94336.01;1770292;80;25792;-85
2020/12/29 00:04:22;;;;;;;3.92;2.25;;;;;;;6.61;64.50;94342.20;1770057;80;27498;-85
2020/12/29 00:06:54;;;;;;;3.90;2.40;;;;;;;6.66;64.43;94332.02;1744326;80;25803;-86
2020/12/29 00:09:25;;;;;;;3.30;2.10;;;;;;;6.74;64.40;94338.23;1747373;80;25750;-86
2020/12/29 00:11:54;;;;;;;2.83;2.02;;;;;;;6.77;64.24;94341.17;1760656;78;25813;-84
2020/12/29 00:14:24;;;;;;;3.60;2.27;;;;;;;6.77;64.16;94347.88;1746332;80;25787;-85
2020/12/29 00:16:51;;;;;;;6.42;2.83;;;;;;;6.79;64.13;94332.88;1756768;80;27621;-85
2020/12/29 00:19:23;;;;;;;5.00;2.62;;;;;;;6.81;64.09;94327.53;1756586;80;26338;-90
2020/12/29 00:21:51;;;;;;;6.17;3.30;;;;;;;6.83;64.02;94316.02;1779205;80;25683;-85
2020/12/29 00:24:18;;;;;;;4.60;2.90;;;;;;;6.78;63.95;94311.96;1777910;80;25701;-86
2020/12/29 00:26:45;;;;;;;5.08;3.08;;;;;;;6.77;63.97;94297.48;1746413;80;25797;-88
2020/12/29 00:29:13;;;;;;;3.50;2.47;;;;;;;6.70;63.88;94288.35;1776138;80;28545;-87
2020/12/29 00:31:40;;;;;;;2.30;1.98;;;;;;;6.68;63.92;94279.77;1773791;80;25679;-86
2020/12/29 00:34:08;;;;;;;3.58;1.92;;;;;;;6.71;63.90;94289.97;1764473;80;25746;-84
2020/12/29 00:36:35;;;;;;;2.72;2.30;;;;;;;6.75;63.93;94282.22;1735424;81;26401;-84
2020/12/29 00:39:04;;;;;;;6.42;3.90;;;;;;;6.83;63.90;94284.37;1734771;81;25882;-84
2020/12/29 00:41:31;;;;;;;4.33;2.10;;;;;;;6.84;63.76;94268.56;1735713;81;27567;-84
2020/12/29 00:43:59;;;;;;;2.22;1.72;;;;;;;6.88;63.70;94259.47;1752148;80;26031;-85
2020/12/29 00:46:26;;;;;;;3.20;2.00;;;;;;;6.96;63.65;94269.66;1730804;81;25704;-84
2020/12/29 00:48:54;;;;;;;1.95;1.30;;;;;;;7.02;63.56;94275.30;1735436;81;26485;-85
2020/12/29 00:51:22;;;;;;;2.27;1.80;;;;;;;7.06;63.47;94267.00;1761045;81;25770;-84
2020/12/29 00:53:50;;;;;;;1.40;1.30;;;;;;;7.11;63.45;94259.78;1758628;80;27705;-89
2020/12/29 00:56:17;;;;;;;2.50;1.50;;;;;;;7.17;63.41;94243.14;1742724;81;25856;-85
2020/12/29 00:58:44;;;;;;;1.50;1.40;;;;;;;7.22;63.35;94253.36;1760875;81;25854;-87
2020/12/29 01:01:12;;;;;;;1.50;1.40;;;;;;;7.27;63.29;94240.47;1740407;81;26542;-86
2020/12/29 01:03:40;;;;;;;2.00;1.72;;;;;;;7.30;63.22;94244.50;1756147;79;25719;-86
2020/12/29 01:06:07;;;;;;;2.20;1.65;;;;;;;7.32;63.15;94257.11;1761018;81;26840;-86
2020/12/29 01:08:35;;;;;;;1.65;1.40;;;;;;;7.33;63.11;94260.88;1751310;81;25726;-87
2020/12/29 01:11:02;;;;;;;2.20;1.52;;;;;;;7.33;62.95;94250.14;1755884;80;25804;-89
2020/12/29 01:13:29;;;;;;;2.47;1.40;;;;;;;7.34;62.96;94255.78;1751899;81;26617;-87
2020/12/29 01:15:57;;;;;;;1.92;1.60;;;;;;;7.34;62.93;94255.78;1758666;80;25732;-86
2020/12/29 01:18:24;;;;;;;1.30;1.20;;;;;;;7.32;62.96;94256.58;1742888;81;27636;-87
2020/12/29 01:20:51;;;;;;;1.30;1.20;;;;;;;7.32;62.92;94247.19;1739696;80;25695;-86
2020/12/29 01:23:19;;;;;;;1.45;1.20;;;;;;;7.30;62.96;94243.96;1761195;81;25356;-85
2020/12/29 01:25:46;;;;;;;1.57;1.05;;;;;;;7.31;62.95;94246.91;1761020;79;26891;-88
2020/12/29 01:28:13;;;;;;;0.98;0.95;;;;;;;7.35;62.88;94241.30;1761003;80;25757;-84
2020/12/29 01:30:41;;;;;;;1.47;1.30;;;;;;;7.37;62.85;94235.63;1751264;81;27510;-84
2020/12/29 01:33:08;;;;;;;1.25;1.15;;;;;;;7.39;62.81;94234.30;1706683;81;25861;-85
2020/12/29 01:35:36;;;;;;;1.40;1.22;;;;;;;7.41;62.71;94248.26;1752638;81;25794;-86
2020/12/29 01:38:05;;;;;;;1.80;0.93;;;;;;;7.43;62.67;94230.55;1730731;81;26651;-87
2020/12/29 01:40:34;;;;;;;1.20;1.10;;;;;;;7.44;62.70;94237.00;1746761;80;26350;-88
2020/12/29 01:43:03;;;;;;;1.12;1.00;;;;;;;7.45;62.60;94223.05;1751285;81;27605;-87
2020/12/29 01:45:31;;;;;;;1.55;1.20;;;;;;;7.47;62.48;94217.68;1732354;81;25719;-92
2020/12/29 01:47:58;;;;;;;1.50;1.32;;;;;;;7.49;62.45;94219.53;1746099;81;25793;-86
2020/12/29 01:50:27;;;;;;;1.35;0.95;;;;;;;7.50;62.37;94216.31;1739863;81;25759;-86
2020/12/29 01:53:01;;;;;;;0.82;0.80;;;;;;;7.51;62.27;94220.61;1761380;81;25762;-87
2020/12/29 01:55:30;;;;;;;1.50;0.88;;;;;;;7.53;62.21;94217.93;1735644;81;27502;-88
2020/12/29 01:58:01;;;;;;;1.15;1.00;;;;;;;7.54;62.07;94230.28;1732608;81;25778;-86
2020/12/29 02:00:29;;;;;;;2.05;1.12;;;;;;;7.55;62.09;94246.66;1741322;81;25871;-86
2020/12/29 02:02:58;;;;;;;1.02;0.95;;;;;;;7.58;62.02;94243.44;1741872;81;26432;-85
2020/12/29 02:05:26;;;;;;;2.45;1.57;;;;;;;7.61;61.89;94235.93;1700204;82;25837;-89
2020/12/29 02:07:54;;;;;;;1.20;1.10;;;;;;;7.62;61.98;94234.83;1755245;81;27517;-85
2020/12/29 02:10:21;;;;;;;0.85;0.72;;;;;;;7.64;61.79;94238.05;1761160;81;25784;-86
2020/12/29 02:12:49;;;;;;;1.05;0.80;;;;;;;7.65;61.63;94236.44;1748616;81;25732;-86
2020/12/29 02:15:17;;;;;;;1.47;1.00;;;;;;;7.65;61.64;94227.58;1761370;81;26518;-88
2020/12/29 02:17:45;;;;;;;1.80;1.32;;;;;;;7.66;61.66;94221.14;1761261;79;25739;-93
2020/12/29 02:20:12;;;;;;;1.67;1.47;;;;;;;7.64;61.54;94217.91;1756936;81;28392;-89
2020/12/29 02:22:39;;;;;;;3.42;1.42;;;;;;;7.65;61.57;94222.21;1736454;81;25689;-91
2020/12/29 02:25:08;;;;;;;1.17;1.00;;;;;;;7.64;61.56;94227.31;1757516;81;25723;-89
2020/12/29 02:27:47;;;;;;;1.42;0.98;;;;;;;7.62;61.53;94224.09;1721186;82;25595;-89
2020/12/29 02:30:19;;;;;;;1.47;0.93;;;;;;;7.62;61.57;94222.74;1742356;81;25800;-87
2020/12/29 02:32:46;;;;;;;1.37;1.00;;;;;;;7.61;61.59;94227.31;1737776;81;27503;-86
2020/12/29 02:35:15;;;;;;;1.12;1.02;;;;;;;7.61;61.58;94238.61;1757311;81;26131;-89
2020/12/29 02:37:44;;;;;;;1.98;1.10;;;;;;;7.61;61.54;94242.64;1761250;81;25835;-86
2020/12/29 02:40:12;;;;;;;1.52;1.15;;;;;;;7.57;61.58;94240.48;1735821;81;25795;-89
2020/12/29 02:42:39;;;;;;;1.98;1.35;;;;;;;7.58;61.57;94249.34;1738398;81;25717;-86
2020/12/29 02:45:10;;;;;;;1.20;1.00;;;;;;;7.57;61.58;94249.07;1732117;81;27507;-86
2020/12/29 02:47:37;;;;;;;0.85;0.70;;;;;;;7.56;61.65;94263.03;1761181;81;26274;-86
2020/12/29 02:50:08;;;;;;;1.05;0.90;;;;;;;7.57;61.68;94271.89;1749334;81;25756;-87
2020/12/29 02:52:35;;;;;;;0.75;0.68;;;;;;;7.57;61.71;94248.53;1740526;81;25760;-84
2020/12/29 02:55:04;;;;;;;1.72;1.02;;;;;;;7.56;61.89;94234.84;1742202;79;25716;-91
2020/12/29 02:57:31;;;;;;;4.47;2.10;;;;;;;7.54;62.09;94236.98;1759636;81;27515;-90
2020/12/29 02:59:58;;;;;;;0.75;0.60;;;;;;;7.50;62.32;94233.76;1744236;81;25781;-91
2020/12/29 03:02:26;;;;;;;3.50;1.22;;;;;;;7.46;62.41;94228.14;1732283;81;25847;-85
2020/12/29 03:04:53;;;;;;;0.78;0.70;;;;;;;7.43;62.59;94225.98;1742059;81;25745;-85
2020/12/29 03:07:20;;;;;;;1.10;0.70;;;;;;;7.41;62.70;94224.11;1761261;79;26448;-84
2020/12/29 03:09:48;;;;;;;0.60;0.55;;;;;;;7.38;62.81;94213.09;1761143;81;28528;-83
2020/12/29 03:12:15;;;;;;;1.30;0.70;;;;;;;7.35;62.88;94210.44;1751056;80;26420;-84
2020/12/29 03:14:43;;;;;;;1.67;1.20;;;;;;;7.32;62.94;94194.87;1759271;81;25853;-87
2020/12/29 03:17:10;;;;;;;0.70;0.70;;;;;;;7.30;62.98;94195.67;1743461;81;26483;-83
2020/12/29 03:19:37;;;;;;;0.60;0.60;;;;;;;7.28;62.97;94195.13;1761964;81;25754;-88
2020/12/29 03:22:05;;;;;;;0.50;0.47;;;;;;;7.27;63.02;94188.15;1749414;81;27596;-89
2020/12/29 03:24:32;;;;;;;0.88;0.70;;;;;;;7.28;63.05;94180.91;1748541;81;26202;-85
2020/12/29 03:26:59;;;;;;;1.55;0.80;;;;;;;7.25;63.08;94178.22;1736611;81;25797;-84
2020/12/29 03:29:27;;;;;;;1.10;0.60;;;;;;;7.20;63.12;94154.09;1736660;81;25778;-87
2020/12/29 03:31:54;;;;;;;0.65;0.50;;;;;;;7.15;63.19;94154.08;1736545;81;25846;-89
2020/12/29 03:34:25;;;;;;;0.85;0.70;;;;;;;7.08;63.20;94161.07;1736692;81;27510;-88
2020/12/29 03:36:52;;;;;;;0.40;0.40;;;;;;;7.05;63.29;94158.92;1743526;81;25834;-89
2020/12/29 03:39:20;;;;;;;1.35;0.80;;;;;;;7.04;63.37;94140.41;1757574;80;25730;-88
2020/12/29 03:41:48;;;;;;;0.40;0.40;;;;;;;7.01;63.40;94139.06;1743168;81;25792;-87
2020/12/29 03:44:15;;;;;;;0.40;0.40;;;;;;;6.96;63.34;94140.95;1752730;81;25844;-87
2020/12/29 03:46:42;;;;;;;0.42;0.20;;;;;;;6.93;63.41;94144.97;1736595;81;28578;-91
2020/12/29 03:49:09;;;;;;;0.03;0.03;;;;;;;6.90;63.41;94147.37;1736691;81;26154;-83
2020/12/29 03:51:37;;;;;;;0.47;0.10;;;;;;;6.86;63.43;94136.39;1758055;79;25703;-86
2020/12/29 03:54:04;;;;;;;0.20;0.10;;;;;;;6.83;63.44;94141.75;1736774;81;25788;-84
2020/12/29 03:56:31;;;;;;;0.00;0.00;;;;;;;6.83;63.46;94136.39;1736711;81;25759;-85
2020/12/29 03:58:59;;;;;;;1.07;0.20;;;;;;;6.80;63.43;94134.23;1765143;81;28735;-85
2020/12/29 04:01:26;;;;;;;0.40;0.30;;;;;;;6.76;63.38;94134.48;1750542;81;25743;-86
2020/12/29 04:03:53;;;;;;;0.62;0.55;;;;;;;6.74;63.38;94131.30;1756767;81;25600;-86
2020/12/29 04:06:21;;;;;;;0.50;0.33;;;;;;;6.74;63.36;94128.61;1754647;81;25765;-85
2020/12/29 04:08:48;;;;;;;3.10;0.40;;;;;;;6.72;63.36;94130.75;1749413;81;26578;-88
2020/12/29 04:11:16;;;;;;;1.37;0.50;;;;;;;6.70;63.37;94126.19;1736593;81;28553;-86
2020/12/29 04:13:43;;;;;;;1.00;0.30;;;;;;;6.67;63.30;94117.34;1738119;81;25787;-87
2020/12/29 04:16:11;;;;;;;1.02;0.45;;;;;;;6.66;63.33;94113.04;1739748;81;25722;-88
2020/12/29 04:18:39;;;;;;;0.50;0.13;;;;;;;6.63;63.34;94106.09;1739830;81;25715;-85
2020/12/29 04:21:07;;;;;;;0.20;0.20;;;;;;;6.59;63.34;94102.33;1739906;81;25802;-89
2020/12/29 04:23:35;;;;;;;0.65;0.17;;;;;;;6.56;63.33;94095.62;1739800;81;27518;-89
2020/12/29 04:26:02;;;;;;;0.10;0.03;;;;;;;6.52;63.40;94105.25;1739638;81;26145;-87
2020/12/29 04:28:30;;;;;;;0.85;0.20;;;;;;;6.48;63.34;94093.47;1739679;81;25764;-87
2020/12/29 04:30:57;;;;;;;0.30;0.30;;;;;;;6.47;63.36;94083.83;1739653;81;26428;-87
2020/12/29 04:33:24;;;;;;;3.27;1.90;;;;;;;6.47;63.39;94082.48;1739707;81;25931;-85
2020/12/29 04:35:51;;;;;;;0.40;0.40;;;;;;;6.47;63.43;94073.11;1739811;81;28468;-85
2020/12/29 04:38:19;;;;;;;0.30;0.30;;;;;;;6.44;63.39;94081.67;1739746;81;26145;-88
2020/12/29 04:40:46;;;;;;;0.93;0.50;;;;;;;6.44;63.42;94107.13;1739704;81;25751;-87
2020/12/29 04:43:13;;;;;;;2.00;1.00;;;;;;;6.43;63.43;94110.34;1739742;81;26173;-85
2020/12/29 04:45:41;;;;;;;2.30;0.93;;;;;;;6.43;63.44;94115.69;1739866;81;25762;-85
2020/12/29 04:48:09;;;;;;;2.33;0.90;;;;;;;6.42;63.46;94118.10;1739919;81;27563;-86
2020/12/29 04:50:38;;;;;;;2.22;1.07;;;;;;;6.42;63.52;94126.67;1739743;81;25830;-86
2020/12/29 04:53:09;;;;;;;1.15;0.70;;;;;;;6.37;63.51;94131.50;1722893;81;25814;-91
2020/12/29 04:55:38;;;;;;;1.45;0.70;;;;;;;6.36;63.57;94132.56;1739820;81;25809;-85
2020/12/29 04:58:05;;;;;;;1.75;0.75;;;;;;;6.36;63.59;94134.44;1739750;81;25773;-84
2020/12/29 05:00:32;;;;;;;1.05;0.60;;;;;;;6.37;63.64;94150.78;1739730;81;28570;-86
2020/12/29 05:03:00;;;;;;;1.45;0.35;;;;;;;6.37;63.67;94162.31;1739637;81;26064;-85
2020/12/29 05:05:27;;;;;;;1.15;0.70;;;;;;;6.36;63.67;94169.27;1739733;81;25805;-86
2020/12/29 05:07:54;;;;;;;4.33;1.55;;;;;;;6.35;63.76;94172.48;1739609;81;26551;-86
2020/12/29 05:10:22;;;;;;;6.65;2.25;;;;;;;6.35;63.77;94178.37;1739782;81;25395;-90
2020/12/29 05:12:51;;;;;;;4.08;1.40;;;;;;;6.37;63.82;94190.97;1740180;81;27502;-85
2020/12/29 05:15:21;;;;;;;5.17;1.80;;;;;;;6.39;63.84;94195.54;1750144;80;25697;-87
2020/12/29 05:17:49;;;;;;;9.70;2.70;;;;;;;6.40;63.88;94201.95;1750088;80;25775;-84
2020/12/29 05:20:33;;;;;;;9.88;3.08;;;;;;;6.40;63.92;94211.32;1750210;80;25734;-90
2020/12/29 05:22:51;;;;;;;11.93;3.35;;;;;;;6.43;64.02;94216.70;1748260;80;25999;-89
2020/12/29 05:25:18;;;;;;;11.25;4.00;;;;;;;6.47;64.08;94215.92;1750312;80;28405;-87
2020/12/29 05:27:45;;;;;;;9.13;3.00;;;;;;;6.48;64.16;94224.23;1750348;80;25778;-88
2020/12/29 05:30:15;;;;;;;5.78;2.55;;;;;;;6.51;64.20;94234.97;1733409;80;25774;-86
2020/12/29 05:32:43;;;;;;;5.78;1.90;;;;;;;6.54;64.22;94213.52;1761413;80;25873;-88
2020/12/29 05:35:13;;;;;;;4.03;1.95;;;;;;;6.58;64.18;94216.75;1750254;80;25322;-88
2020/12/29 05:37:42;;;;;;;6.60;2.30;;;;;;;6.60;64.21;94226.68;1750344;80;27575;-85
2020/12/29 05:40:30;;;;;;;10.18;3.10;;;;;;;6.59;64.30;94240.34;1750133;80;25727;-88
2020/12/29 05:43:01;;;;;;;8.10;4.62;;;;;;;6.50;64.30;94246.22;1769030;80;25740;-85
2020/12/29 05:45:31;;;;;;;7.83;3.40;;;;;;;6.43;64.27;94258.22;1750325;80;26835;-84
2020/12/29 05:48:00;;;;;;;8.53;3.83;;;;;;;6.39;64.39;94249.13;1750377;80;25831;-83
2020/12/29 05:50:30;;;;;;;7.40;3.62;;;;;;;6.37;64.53;94261.97;1750744;80;27494;-83
2020/12/29 05:53:06;;;;;;;9.30;4.30;;;;;;;6.32;64.63;94265.95;1750510;80;25714;-84
2020/12/29 05:55:35;;;;;;;7.30;3.90;;;;;;;6.29;64.67;94270.48;1750476;80;25829;-86
2020/12/29 05:58:11;;;;;;;7.45;3.90;;;;;;;6.23;64.71;94275.02;1750505;80;27306;-84
2020/12/29 06:00:40;;;;;;;7.17;4.03;;;;;;;6.18;64.80;94282.20;1750371;80;26364;-88
2020/12/29 06:03:09;;;;;;;8.03;4.47;;;;;;;6.06;64.83;94281.88;1750307;80;28407;-84
2020/12/29 06:05:38;;;;;;;10.82;4.72;;;;;;;5.98;64.94;94281.56;1750205;80;26853;-86
2020/12/29 06:08:08;;;;;;;42.27;15.90;;;;;;;5.90;65.12;94286.89;1750288;80;25834;-84
2020/12/29 06:10:37;;;;;;;50.67;21.33;;;;;;;5.80;65.27;94294.26;1750272;80;26420;-86
2020/12/29 06:13:06;;;;;;;43.68;18.55;;;;;;;5.64;65.30;94303.26;1750321;80;25751;-85
2020/12/29 06:15:37;;;;;;;40.58;17.40;;;;;;;5.53;65.57;94314.13;1767881;80;28546;-87
2020/12/29 06:18:07;;;;;;;42.62;17.75;;;;;;;5.48;65.75;94334.14;1753611;80;25751;-84
2020/12/29 06:20:53;;;;;;;34.85;17.87;;;;;;;5.40;65.79;94349.60;1766684;80;25751;-86
2020/12/29 06:23:21;;;;;;;26.73;13.32;;;;;;;5.35;65.92;94362.91;1751612;80;25712;-84
2020/12/29 06:25:48;;;;;;;18.87;10.45;;;;;;;5.31;66.01;94377.06;1750434;80;26334;-84
2020/12/29 06:28:17;;;;;;;9.68;5.37;;;;;;;5.36;66.08;94395.30;1756027;80;27541;-84
2020/12/29 06:30:45;;;;;;;5.92;2.80;;;;;;;5.49;66.01;94398.63;1765545;80;25693;-86
2020/12/29 06:33:18;;;;;;;4.75;1.85;;;;;;;5.60;65.91;94388.30;1750408;80;26586;-85
2020/12/29 06:35:46;;;;;;;2.80;1.50;;;;;;;5.73;65.95;94438.20;1750265;80;26255;-87
2020/12/29 06:38:26;;;;;;;3.33;1.60;;;;;;;5.83;65.96;94452.21;1724739;80;25400;-83
2020/12/29 06:40:55;;;;;;;1.60;1.00;;;;;;;5.94;65.94;94463.85;1750276;80;28557;-87
2020/12/29 06:43:22;;;;;;;1.32;1.02;;;;;;;5.94;65.96;94483.93;1724650;80;25818;-83
2020/12/29 06:45:50;;;;;;;3.58;1.52;;;;;;;5.91;66.09;94518.73;1750286;80;25782;-84
2020/12/29 06:48:20;;;;;;;2.52;1.10;;;;;;;5.86;66.23;94507.12;1750270;80;26402;-82
2020/12/29 06:50:48;;;;;;;2.87;1.62;;;;;;;5.84;66.35;94507.37;1750292;80;25887;-83
2020/12/29 06:53:18;;;;;;;5.83;2.22;;;;;;;5.79;66.47;94534.09;1750371;80;27503;-86
2020/12/29 06:55:49;;;;;;;4.03;1.52;;;;;;;5.74;66.60;94546.08;1750202;80;25371;-84
2020/12/29 06:58:34;;;;;;;3.85;1.52;;;;;;;5.71;66.70;94553.26;1750242;80;26203;-81
2020/12/29 07:01:23;;;;;;;3.47;1.30;;;;;;;5.69;66.74;94575.44;1750338;80;25542;-85
2020/12/29 07:04:05;;;;;;;1.72;1.20;;;;;;;5.68;66.79;94583.19;1750107;80;25882;-82
2020/12/29 07:06:36;;;;;;;5.08;2.25;;;;;;;5.67;66.86;94597.66;1750267;80;27711;-83
2020/12/29 07:09:21;;;;;;;1.87;1.00;;;;;;;5.69;66.83;94601.67;1749957;80;25856;-81
2020/12/29 07:12:10;;;;;;;2.42;1.10;;;;;;;5.70;66.78;94613.19;1754549;80;25835;-83
2020/12/29 07:14:39;;;;;;;4.17;2.00;;;;;;;5.69;66.77;94623.61;1753762;80;26497;-85
2020/12/29 07:17:07;;;;;;;3.85;2.17;;;;;;;5.70;66.75;94626.58;1749749;80;25724;-85
2020/12/29 07:19:40;;;;;;;3.65;1.70;;;;;;;5.69;66.74;94641.02;1739967;81;27505;-85
2020/12/29 07:22:17;;;;;;;2.47;1.60;;;;;;;5.66;66.70;94641.00;1747880;81;25967;-86
2020/12/29 07:24:47;;;;;;;2.52;1.62;;;;;;;5.64;66.71;94640.97;1750690;81;25794;-89
2020/12/29 07:27:15;;;;;;;2.15;1.17;;;;;;;5.62;66.76;94647.08;1757994;81;25761;-84
2020/12/29 07:29:58;;;;;;;3.47;2.52;;;;;;;5.60;66.81;94653.20;1743764;80;25768;-82
2020/12/29 07:32:28;;;;;;;1.85;1.22;;;;;;;5.61;66.86;94665.00;1718282;80;27519;-87
2020/12/29 07:34:55;;;;;;;4.92;3.08;;;;;;;5.59;66.87;94686.38;1749634;81;25779;-86
2020/12/29 07:37:25;;;;;;;2.77;1.92;;;;;;;5.58;66.88;94700.28;1757324;81;25412;-85
2020/12/29 07:39:52;;;;;;;3.80;1.77;;;;;;;5.56;66.84;94706.92;1751333;81;26503;-87
2020/12/29 07:42:20;;;;;;;2.27;1.32;;;;;;;5.54;66.93;94719.77;1749754;81;25746;-87
2020/12/29 07:44:47;;;;;;;2.98;2.30;;;;;;;5.56;66.97;94735.02;1749742;81;27509;-86
2020/12/29 07:47:14;;;;;;;9.25;4.97;;;;;;;5.55;66.95;94733.42;1750421;81;25679;-89
2020/12/29 07:49:42;;;;;;;4.55;2.45;;;;;;;5.52;66.97;94736.06;1749786;81;25366;-89
2020/12/29 07:52:09;;;;;;;5.10;2.52;;;;;;;5.50;66.99;94761.43;1750493;81;25899;-90
2020/12/29 07:54:37;;;;;;;5.15;2.58;;;;;;;5.47;66.94;94781.98;1758368;80;26197;-85
2020/12/29 07:57:05;;;;;;;4.95;2.80;;;;;;;5.46;66.83;94776.34;1749772;81;27506;-85
2020/12/29 07:59:32;;;;;;;9.38;4.22;;;;;;;5.40;66.69;94804.37;1757769;81;26340;-89
2020/12/29 08:01:59;;;;;;;8.18;4.10;;;;;;;5.38;66.67;94815.02;1751157;81;25784;-87
2020/12/29 08:04:31;;;;;;;4.03;2.00;;;;;;;5.35;66.77;94814.97;1740055;81;25816;-86
2020/12/29 08:07:01;;;;;;;4.27;2.17;;;;;;;5.36;66.82;94832.64;1740797;80;26638;-89
2020/12/29 08:09:29;;;;;;;4.12;2.08;;;;;;;5.38;66.83;94838.56;1739529;81;27747;-87
2020/12/29 08:12:05;;;;;;;1.98;1.57;;;;;;;5.41;66.76;94846.12;1739845;81;25914;-88
2020/12/29 08:14:32;;;;;;;5.47;1.80;;;;;;;5.44;66.65;94838.92;1742332;81;25908;-85
2020/12/29 08:17:04;;;;;;;3.37;1.50;;;;;;;5.47;66.63;94855.03;1728372;81;25789;-82
2020/12/29 08:19:32;;;;;;;3.27;1.72;;;;;;;5.56;66.51;94855.44;1741797;81;25740;-86
2020/12/29 08:22:06;;;;;;;4.97;2.85;;;;;;;5.62;66.42;94842.44;1742219;81;27612;-84
2020/12/29 08:24:34;;;;;;;4.17;2.50;;;;;;;5.68;66.35;94869.55;1758215;80;25784;-87
2020/12/29 08:27:03;;;;;;;3.02;1.72;;;;;;;5.79;66.32;94882.09;1752679;81;25786;-92
2020/12/29 08:29:33;;;;;;;5.35;2.62;;;;;;;5.87;66.10;94896.39;1760150;80;25521;-91
2020/12/29 08:32:12;;;;;;;6.12;3.35;;;;;;;5.96;66.00;94905.67;1739819;81;25808;-86
2020/12/29 08:34:41;;;;;;;4.53;2.77;;;;;;;6.08;65.86;94910.95;1759559;80;27470;-85
2020/12/29 08:37:09;;;;;;;3.12;2.00;;;;;;;6.08;65.56;94935.86;1751490;81;26159;-85
2020/12/29 08:40:06;;;;;;;5.35;2.60;;;;;;;6.08;64.85;94954.61;1760201;80;26345;-86
2020/12/29 08:42:35;;;;;;;3.15;2.27;;;;;;;6.11;64.28;94946.09;1744182;81;25740;-84
2020/12/29 08:45:08;;;;;;;4.15;2.42;;;;;;;6.24;64.23;94954.87;1756221;81;25837;-91
2020/12/29 08:47:36;;;;;;;2.62;1.80;;;;;;;6.36;64.13;94954.26;1743242;81;27534;-87
2020/12/29 08:50:24;;;;;;;3.65;2.00;;;;;;;6.47;63.74;94960.86;1758240;81;25881;-85
2020/12/29 08:52:56;;;;;;;3.77;2.33;;;;;;;6.64;63.72;94978.25;1756089;81;25770;-91
2020/12/29 08:55:29;;;;;;;3.40;2.25;;;;;;;6.74;62.77;94985.13;1753927;80;25828;-89
2020/12/29 08:57:58;;;;;;;3.85;2.22;;;;;;;6.88;62.20;94991.48;1756534;81;25806;-88
2020/12/29 09:00:29;;;;;;;4.25;1.98;;;;;;;7.01;62.18;94996.47;1756306;81;27547;-90
2020/12/29 09:02:57;;;;;;;4.35;1.82;;;;;;;7.09;61.26;94996.07;1750990;81;25897;-85
2020/12/29 09:05:29;;;;;;;4.10;2.25;;;;;;;7.08;59.83;95027.97;1739800;81;25875;-89
2020/12/29 09:07:57;;;;;;;3.08;1.95;;;;;;;7.03;59.70;95023.34;1740040;81;34899;-85
2020/12/29 09:10:25;;;;;;;2.92;2.20;;;;;;;7.09;59.89;95036.30;1722275;81;43799;-85
2020/12/29 09:12:53;;;;;;;2.80;1.85;;;;;;;7.06;58.83;95047.52;1739867;81;27501;-91
2020/12/29 09:15:27;;;;;;;4.03;1.92;;;;;;;6.97;58.74;95050.34;1738207;81;26548;-87
2020/12/29 09:18:00;;;;;;;2.17;1.60;;;;;;;6.88;58.27;95058.78;1736647;81;25852;-86
2020/12/29 09:20:32;;;;;;;2.70;1.57;;;;;;;6.80;57.38;95063.76;1736631;81;25517;-90
2020/12/29 09:23:15;;;;;;;4.42;2.02;;;;;;;6.78;57.19;95073.38;1738354;81;25928;-84
2020/12/29 09:25:44;;;;;;;3.37;2.00;;;;;;;6.76;57.43;95087.55;1759005;81;28803;-88
2020/12/29 09:28:22;;;;;;;5.60;2.22;;;;;;;6.97;57.81;95097.28;1749235;81;26029;-83
2020/12/29 09:31:07;;;;;;;4.05;2.52;;;;;;;7.14;57.63;95128.39;1737654;81;25892;-86
2020/12/29 09:33:38;;;;;;;4.47;2.72;;;;;;;7.13;57.33;95117.90;1764695;81;26569;-81
2020/12/29 09:36:20;;;;;;;5.67;2.95;;;;;;;7.16;57.35;95128.15;1748216;81;26019;-85
2020/12/29 09:38:49;;;;;;;4.25;2.72;;;;;;;6.99;57.26;95140.24;1736510;82;28482;-83
2020/12/29 09:41:17;;;;;;;3.27;2.10;;;;;;;7.00;57.01;95136.52;1755678;81;25746;-86
2020/12/29 09:43:49;;;;;;;1.95;1.50;;;;;;;7.07;56.52;95134.98;1766249;81;25877;-90
2020/12/29 09:46:17;;;;;;;1.93;1.40;;;;;;;7.16;56.41;95128.96;1749947;81;26751;-89
2020/12/29 09:48:44;;;;;;;3.15;1.82;;;;;;;7.36;56.10;95127.66;1737026;79;26411;-89
2020/12/29 09:51:13;;;;;;;3.12;1.60;;;;;;;7.52;56.09;95134.32;1743163;81;28453;-85
2020/12/29 09:53:40;;;;;;;1.57;1.27;;;;;;;7.69;56.33;95129.45;1741860;81;25711;-85
2020/12/29 09:56:08;;;;;;;2.17;1.47;;;;;;;7.89;56.22;95131.05;1744931;81;25357;-86
2020/12/29 09:58:35;;;;;;;3.08;1.90;;;;;;;8.04;55.56;95135.80;1757940;81;25806;-85
2020/12/29 10:01:03;;;;;;;2.30;1.67;;;;;;;8.13;54.96;95138.33;1754215;81;25847;-83
2020/12/29 10:03:32;;;;;;;3.90;1.90;;;;;;;8.21;54.74;95160.19;1748893;81;27696;-85
2020/12/29 10:05:59;;;;;;;2.62;1.70;;;;;;;8.29;54.34;95167.83;1745384;81;25760;-82
2020/12/29 10:08:27;;;;;;;3.10;1.85;;;;;;;8.38;53.68;95151.27;1742000;81;25857;-84
2020/12/29 10:10:54;;;;;;;3.37;2.08;;;;;;;8.32;52.88;95154.45;1750102;81;25720;-84
2020/12/29 10:13:21;;;;;;;3.12;1.87;;;;;;;8.31;53.29;95155.48;1761007;81;25771;-85
2020/12/29 10:15:49;;;;;;;2.27;1.50;;;;;;;8.54;53.81;95166.52;1749691;81;27508;-89
2020/12/29 10:18:17;;;;;;;4.33;2.00;;;;;;;8.81;53.89;95174.06;1749445;81;25776;-83
2020/12/29 10:20:45;;;;;;;2.50;1.57;;;;;;;8.95;52.49;95170.41;1742003;81;25827;-83
2020/12/29 10:23:13;;;;;;;3.27;2.00;;;;;;;9.02;52.58;95185.30;1745727;81;25852;-82
2020/12/29 10:25:41;;;;;;;4.03;2.50;;;;;;;9.10;51.87;95170.55;1742463;81;25764;-84
2020/12/29 10:28:08;;;;;;;3.72;2.25;;;;;;;9.26;51.89;95171.49;1745306;81;28475;-85
2020/12/29 10:30:35;;;;;;;2.80;1.82;;;;;;;9.48;52.17;95177.59;1739989;81;25843;-87
2020/12/29 10:33:03;;;;;;;3.80;2.30;;;;;;;9.62;50.35;95167.99;1752437;81;26187;-83
2020/12/29 10:35:30;;;;;;;3.37;2.10;;;;;;;9.74;50.33;95171.84;1733794;81;25906;-88
2020/12/29 10:37:58;;;;;;;5.80;3.52;;;;;;;9.92;50.63;95174.63;1735312;81;25879;-82
2020/12/29 10:40:26;;;;;;;4.53;2.25;;;;;;;10.04;50.64;95181.97;1732838;81;27671;-85
2020/12/29 10:42:53;;;;;;;5.65;3.33;;;;;;;10.35;50.69;95172.18;1734414;81;26700;-83
2020/12/29 10:45:20;;;;;;;5.80;3.00;;;;;;;10.58;50.35;95174.95;1734984;81;25869;-86
2020/12/29 10:47:48;;;;;;;4.12;3.17;;;;;;;10.83;49.94;95168.27;1739825;81;26363;-86
2020/12/29 10:50:16;;;;;;;5.15;2.90;;;;;;;10.94;49.96;95163.16;1742078;80;25794;-85
2020/12/29 10:52:44;;;;;;;3.30;2.20;;;;;;;11.04;49.61;95158.31;1729085;81;28486;-84
2020/12/29 10:55:11;;;;;;;4.17;2.02;;;;;;;11.17;49.62;95174.80;1738612;81;25879;-85
2020/12/29 10:57:38;;;;;;;1.60;1.22;;;;;;;11.26;49.15;95175.60;1740292;81;26619;-88
2020/12/29 11:00:06;;;;;;;4.75;1.40;;;;;;;11.27;47.94;95173.17;1739179;81;26377;-84
2020/12/29 11:02:33;;;;;;;3.77;1.60;;;;;;;11.32;48.35;95179.40;1738224;81;25962;-84
2020/12/29 11:05:00;;;;;;;3.70;2.20;;;;;;;11.60;48.08;95176.67;1734184;81;27472;-86
2020/12/29 11:07:28;;;;;;;1.95;1.55;;;;;;;11.75;48.54;95175.85;1732029;81;25696;-85
2020/12/29 11:09:55;;;;;;;2.47;1.65;;;;;;;12.03;47.91;95183.95;1729679;81;26388;-89
2020/12/29 11:12:23;;;;;;;1.82;1.30;;;;;;;12.15;48.05;95188.52;1729756;81;25520;-87
2020/12/29 11:14:50;;;;;;;1.10;1.00;;;;;;;12.10;46.33;95183.11;1749606;81;26500;-88
2020/12/29 11:17:18;;;;;;;3.33;2.22;;;;;;;12.14;46.78;95178.78;1743008;80;27501;-88
2020/12/29 11:19:45;;;;;;;2.90;2.17;;;;;;;12.12;46.38;95185.81;1737760;81;26313;-88
2020/12/29 11:22:12;;;;;;;3.62;1.85;;;;;;;12.39;46.75;95188.17;1749327;81;25772;-90
2020/12/29 11:24:40;;;;;;;2.02;1.55;;;;;;;12.53;46.79;95182.98;1743033;81;25854;-83
2020/12/29 11:27:07;;;;;;;4.15;2.30;;;;;;;12.69;46.60;95182.34;1746009;81;25740;-85
2020/12/29 11:29:35;;;;;;;5.05;2.10;;;;;;;12.89;46.23;95183.61;1728859;81;27757;-90
2020/12/29 11:32:02;;;;;;;3.37;2.00;;;;;;;13.02;46.38;95193.83;1733320;81;25724;-83
2020/12/29 11:34:30;;;;;;;1.82;1.40;;;;;;;13.10;46.07;95197.28;1732942;81;26556;-84
2020/12/29 11:36:57;;;;;;;8.90;3.08;;;;;;;13.05;45.58;95204.08;1747075;81;26477;-84
2020/12/29 11:39:25;;;;;;;3.80;2.17;;;;;;;13.05;45.24;95205.43;1755066;81;26309;-82
2020/12/29 11:41:53;;;;;;;4.45;2.52;;;;;;;13.02;45.46;95208.72;1731625;81;27705;-85
2020/12/29 11:44:21;;;;;;;3.80;2.02;;;;;;;12.94;45.14;95217.41;1747607;81;25772;-85
2020/12/29 11:46:49;;;;;;;2.98;2.15;;;;;;;12.97;44.32;95218.21;1745215;81;25314;-90
2020/12/29 11:49:17;;;;;;;7.67;2.55;;;;;;;12.86;44.88;95217.45;1730349;81;25962;-83
2020/12/29 11:51:48;;;;;;;3.15;2.05;;;;;;;13.08;45.10;95219.77;1754642;81;25687;-84